sensor_id;sensor_type;location;lat;lon;timestamp;P1;durP1;ratioP1;P2;durP2;ratioP2
31734;SDS011;18313;48.518;9.124;2023-11-19T00:01:59;1.75;;;1.10;;
31734;SDS011;18313;48.518;9.124;2023-11-19T00:04:26;4.25;;;1.10;;
31734;SDS011;18313;48.518;9.124;2023-11-19T00:06:54;3.72;;;1.35;;
31734;SDS011;18313;48.518;9.124;2023-11-19T00:09:21;2.17;;;1.17;;
31734;SDS011;18313;48.518;9.124;2023-11-19T00:11:49;5.53;;;1.10;;
31734;SDS011;18313;48.518;9.124;2023-11-19T00:14:18;2.95;;;1.13;;
31734;SDS011;18313;48.518;9.124;2023-11-19T00:16:46;2.17;;;1.30;;
31734;SDS011;18313;48.518;9.124;2023-11-19T00:19:13;4.57;;;1.20;;
31734;SDS011;18313;48.518;9.124;2023-11-19T00:21:42;2.28;;;1.00;;
31734;SDS011;18313;48.518;9.124;2023-11-19T00:24:09;1.88;;;1.10;;
31734;SDS011;18313;48.518;9.124;2023-11-19T00:26:37;3.50;;;1.20;;
31734;SDS011;18313;48.518;9.124;2023-11-19T00:29:05;3.03;;;1.10;;
31734;SDS011;18313;48.518;9.124;2023-11-19T00:31:33;6.50;;;1.20;;
31734;SDS011;18313;48.518;9.124;2023-11-19T00:34:00;3.47;;;1.10;;
31734;SDS011;18313;48.518;9.124;2023-11-19T00:36:28;1.80;;;1.08;;
31734;SDS011;18313;48.518;9.124;2023-11-19T00:38:55;2.05;;;1.10;;
31734;SDS011;18313;48.518;9.124;2023-11-19T00:41:23;1.88;;;1.30;;
31734;SDS011;18313;48.518;9.124;2023-11-19T00:43:52;1.88;;;1.10;;
31734;SDS011;18313;48.518;9.124;2023-11-19T00:46:19;1.88;;;1.20;;
31734;SDS011;18313;48.518;9.124;2023-11-19T00:48:46;1.42;;;0.90;;
31734;SDS011;18313;48.518;9.124;2023-11-19T00:51:13;2.20;;;1.05;;
31734;SDS011;18313;48.518;9.124;2023-11-19T00:53:41;2.65;;;1.30;;
31734;SDS011;18313;48.518;9.124;2023-11-19T00:56:08;2.03;;;1.10;;
31734;SDS011;18313;48.518;9.124;2023-11-19T00:58:38;2.28;;;1.35;;
31734;SDS011;18313;48.518;9.124;2023-11-19T01:01:06;3.05;;;1.10;;
31734;SDS011;18313;48.518;9.124;2023-11-19T01:03:33;1.35;;;0.80;;
31734;SDS011;18313;48.518;9.124;2023-11-19T01:06:01;1.63;;;0.80;;
31734;SDS011;18313;48.518;9.124;2023-11-19T01:08:28;1.95;;;1.05;;
31734;SDS011;18313;48.518;9.124;2023-11-19T01:10:56;3.83;;;1.10;;
31734;SDS011;18313;48.518;9.124;2023-11-19T01:13:23;1.58;;;0.85;;
31734;SDS011;18313;48.518;9.124;2023-11-19T01:15:51;2.17;;;1.10;;
31734;SDS011;18313;48.518;9.124;2023-11-19T01:18:18;1.73;;;0.90;;
31734;SDS011;18313;48.518;9.124;2023-11-19T01:20:45;1.65;;;0.80;;
31734;SDS011;18313;48.518;9.124;2023-11-19T01:23:12;1.13;;;0.80;;
31734;SDS011;18313;48.518;9.124;2023-11-19T01:25:39;2.67;;;1.00;;
31734;SDS011;18313;48.518;9.124;2023-11-19T01:28:07;0.82;;;0.77;;
31734;SDS011;18313;48.518;9.124;2023-11-19T01:30:34;2.00;;;0.90;;
31734;SDS011;18313;48.518;9.124;2023-11-19T01:33:01;1.75;;;0.80;;
31734;SDS011;18313;48.518;9.124;2023-11-19T01:35:29;2.40;;;1.00;;
31734;SDS011;18313;48.518;9.124;2023-11-19T01:37:56;1.15;;;0.90;;
31734;SDS011;18313;48.518;9.124;2023-11-19T01:40:23;1.30;;;0.70;;
31734;SDS011;18313;48.518;9.124;2023-11-19T01:42:50;1.80;;;0.80;;
31734;SDS011;18313;48.518;9.124;2023-11-19T01:45:27;1.95;;;0.80;;
31734;SDS011;18313;48.518;9.124;2023-11-19T01:47:57;1.02;;;0.70;;
31734;SDS011;18313;48.518;9.124;2023-11-19T01:50:26;2.90;;;0.90;;
31734;SDS011;18313;48.518;9.124;2023-11-19T01:52:55;1.52;;;0.60;;
31734;SDS011;18313;48.518;9.124;2023-11-19T01:55:26;1.88;;;0.70;;
31734;SDS011;18313;48.518;9.124;2023-11-19T01:57:59;1.45;;;0.70;;
31734;SDS011;18313;48.518;9.124;2023-11-19T02:00:28;1.10;;;0.55;;
31734;SDS011;18313;48.518;9.124;2023-11-19T02:02:56;1.30;;;0.60;;
31734;SDS011;18313;48.518;9.124;2023-11-19T02:05:24;0.93;;;0.73;;
31734;SDS011;18313;48.518;9.124;2023-11-19T02:07:51;1.38;;;0.70;;
31734;SDS011;18313;48.518;9.124;2023-11-19T02:10:18;1.85;;;0.90;;
31734;SDS011;18313;48.518;9.124;2023-11-19T02:12:46;1.30;;;0.80;;
31734;SDS011;18313;48.518;9.124;2023-11-19T02:15:13;1.25;;;0.70;;
31734;SDS011;18313;48.518;9.124;2023-11-19T02:17:40;3.28;;;0.70;;
31734;SDS011;18313;48.518;9.124;2023-11-19T02:20:07;2.38;;;0.70;;
31734;SDS011;18313;48.518;9.124;2023-11-19T02:22:37;0.93;;;0.60;;
31734;SDS011;18313;48.518;9.124;2023-11-19T02:25:06;1.20;;;0.70;;
31734;SDS011;18313;48.518;9.124;2023-11-19T02:27:51;1.98;;;0.80;;
31734;SDS011;18313;48.518;9.124;2023-11-19T02:30:24;0.73;;;0.60;;
31734;SDS011;18313;48.518;9.124;2023-11-19T02:33:00;1.85;;;0.60;;
31734;SDS011;18313;48.518;9.124;2023-11-19T02:35:32;1.67;;;0.80;;
31734;SDS011;18313;48.518;9.124;2023-11-19T02:38:00;2.33;;;0.65;;
31734;SDS011;18313;48.518;9.124;2023-11-19T02:40:27;2.25;;;0.60;;
31734;SDS011;18313;48.518;9.124;2023-11-19T02:42:54;1.23;;;0.60;;
31734;SDS011;18313;48.518;9.124;2023-11-19T02:45:22;1.23;;;0.70;;
31734;SDS011;18313;48.518;9.124;2023-11-19T02:47:51;0.45;;;0.45;;
31734;SDS011;18313;48.518;9.124;2023-11-19T02:50:19;2.45;;;0.60;;
31734;SDS011;18313;48.518;9.124;2023-11-19T02:52:52;0.97;;;0.50;;
31734;SDS011;18313;48.518;9.124;2023-11-19T02:55:20;1.10;;;0.70;;
31734;SDS011;18313;48.518;9.124;2023-11-19T02:57:47;1.75;;;0.60;;
31734;SDS011;18313;48.518;9.124;2023-11-19T03:00:15;2.67;;;0.65;;
31734;SDS011;18313;48.518;9.124;2023-11-19T03:02:50;1.55;;;0.70;;
31734;SDS011;18313;48.518;9.124;2023-11-19T03:05:41;3.20;;;0.63;;
31734;SDS011;18313;48.518;9.124;2023-11-19T03:08:08;3.53;;;0.50;;
31734;SDS011;18313;48.518;9.124;2023-11-19T03:10:35;0.77;;;0.50;;
31734;SDS011;18313;48.518;9.124;2023-11-19T03:13:02;1.00;;;0.60;;
31734;SDS011;18313;48.518;9.124;2023-11-19T03:15:30;3.20;;;0.63;;
31734;SDS011;18313;48.518;9.124;2023-11-19T03:17:57;1.45;;;0.50;;
31734;SDS011;18313;48.518;9.124;2023-11-19T03:20:24;0.73;;;0.50;;
31734;SDS011;18313;48.518;9.124;2023-11-19T03:22:54;1.23;;;0.50;;
31734;SDS011;18313;48.518;9.124;2023-11-19T03:25:21;1.35;;;0.50;;
31734;SDS011;18313;48.518;9.124;2023-11-19T03:27:48;1.38;;;0.60;;
31734;SDS011;18313;48.518;9.124;2023-11-19T03:30:15;0.40;;;0.40;;
31734;SDS011;18313;48.518;9.124;2023-11-19T03:32:44;1.55;;;0.65;;
31734;SDS011;18313;48.518;9.124;2023-11-19T03:35:11;0.77;;;0.50;;
31734;SDS011;18313;48.518;9.124;2023-11-19T03:37:38;0.80;;;0.50;;
31734;SDS011;18313;48.518;9.124;2023-11-19T03:40:06;0.47;;;0.40;;
31734;SDS011;18313;48.518;9.124;2023-11-19T03:42:34;0.85;;;0.50;;
31734;SDS011;18313;48.518;9.124;2023-11-19T03:45:01;1.15;;;0.60;;
31734;SDS011;18313;48.518;9.124;2023-11-19T03:47:30;1.23;;;0.43;;
31734;SDS011;18313;48.518;9.124;2023-11-19T03:49:57;0.73;;;0.40;;
31734;SDS011;18313;48.518;9.124;2023-11-19T03:52:25;0.93;;;0.63;;
31734;SDS011;18313;48.518;9.124;2023-11-19T03:54:53;0.57;;;0.43;;
31734;SDS011;18313;48.518;9.124;2023-11-19T03:57:21;0.30;;;0.30;;
31734;SDS011;18313;48.518;9.124;2023-11-19T03:59:49;2.33;;;0.50;;
31734;SDS011;18313;48.518;9.124;2023-11-19T04:02:17;1.95;;;0.40;;
31734;SDS011;18313;48.518;9.124;2023-11-19T04:04:44;1.08;;;0.43;;
31734;SDS011;18313;48.518;9.124;2023-11-19T04:07:11;0.95;;;0.40;;
31734;SDS011;18313;48.518;9.124;2023-11-19T04:09:39;0.52;;;0.40;;
31734;SDS011;18313;48.518;9.124;2023-11-19T04:12:06;0.40;;;0.30;;
31734;SDS011;18313;48.518;9.124;2023-11-19T04:14:36;1.38;;;0.38;;
31734;SDS011;18313;48.518;9.124;2023-11-19T04:17:03;0.47;;;0.35;;
31734;SDS011;18313;48.518;9.124;2023-11-19T04:19:30;0.35;;;0.30;;
31734;SDS011;18313;48.518;9.124;2023-11-19T04:21:59;0.47;;;0.32;;
31734;SDS011;18313;48.518;9.124;2023-11-19T04:24:26;0.40;;;0.40;;
31734;SDS011;18313;48.518;9.124;2023-11-19T04:26:54;0.85;;;0.30;;
31734;SDS011;18313;48.518;9.124;2023-11-19T04:29:21;0.30;;;0.30;;
31734;SDS011;18313;48.518;9.124;2023-11-19T04:31:48;0.65;;;0.40;;
31734;SDS011;18313;48.518;9.124;2023-11-19T04:34:15;0.30;;;0.30;;
31734;SDS011;18313;48.518;9.124;2023-11-19T04:36:42;1.92;;;0.40;;
31734;SDS011;18313;48.518;9.124;2023-11-19T04:39:10;0.50;;;0.20;;
31734;SDS011;18313;48.518;9.124;2023-11-19T04:41:45;0.95;;;0.20;;
31734;SDS011;18313;48.518;9.124;2023-11-19T04:44:16;1.02;;;0.22;;
31734;SDS011;18313;48.518;9.124;2023-11-19T04:46:44;0.73;;;0.40;;
31734;SDS011;18313;48.518;9.124;2023-11-19T04:49:13;2.10;;;0.30;;
31734;SDS011;18313;48.518;9.124;2023-11-19T04:51:41;0.17;;;0.17;;
31734;SDS011;18313;48.518;9.124;2023-11-19T04:54:09;0.43;;;0.30;;
31734;SDS011;18313;48.518;9.124;2023-11-19T04:56:37;0.30;;;0.30;;
31734;SDS011;18313;48.518;9.124;2023-11-19T04:59:04;0.98;;;0.30;;
31734;SDS011;18313;48.518;9.124;2023-11-19T05:01:35;0.60;;;0.30;;
31734;SDS011;18313;48.518;9.124;2023-11-19T05:04:02;0.55;;;0.13;;
31734;SDS011;18313;48.518;9.124;2023-11-19T05:06:30;0.25;;;0.20;;
31734;SDS011;18313;48.518;9.124;2023-11-19T05:08:58;0.40;;;0.20;;
31734;SDS011;18313;48.518;9.124;2023-11-19T05:11:35;0.32;;;0.20;;
31734;SDS011;18313;48.518;9.124;2023-11-19T05:14:16;0.20;;;0.20;;
31734;SDS011;18313;48.518;9.124;2023-11-19T05:16:45;1.77;;;0.30;;
31734;SDS011;18313;48.518;9.124;2023-11-19T05:19:12;0.20;;;0.20;;
31734;SDS011;18313;48.518;9.124;2023-11-19T05:21:43;0.30;;;0.20;;
31734;SDS011;18313;48.518;9.124;2023-11-19T05:24:11;0.22;;;0.20;;
31734;SDS011;18313;48.518;9.124;2023-11-19T05:26:38;3.13;;;0.35;;
31734;SDS011;18313;48.518;9.124;2023-11-19T05:29:05;0.20;;;0.20;;
31734;SDS011;18313;48.518;9.124;2023-11-19T05:31:32;0.20;;;0.20;;
31734;SDS011;18313;48.518;9.124;2023-11-19T05:34:03;0.20;;;0.20;;
31734;SDS011;18313;48.518;9.124;2023-11-19T05:36:31;0.95;;;0.30;;
31734;SDS011;18313;48.518;9.124;2023-11-19T05:38:58;0.20;;;0.20;;
31734;SDS011;18313;48.518;9.124;2023-11-19T05:41:25;0.70;;;0.40;;
31734;SDS011;18313;48.518;9.124;2023-11-19T05:43:52;0.20;;;0.20;;
31734;SDS011;18313;48.518;9.124;2023-11-19T05:46:19;0.20;;;0.20;;
31734;SDS011;18313;48.518;9.124;2023-11-19T05:48:47;1.00;;;0.20;;
31734;SDS011;18313;48.518;9.124;2023-11-19T05:51:15;0.32;;;0.30;;
31734;SDS011;18313;48.518;9.124;2023-11-19T05:53:43;1.10;;;0.30;;
31734;SDS011;18313;48.518;9.124;2023-11-19T05:56:12;0.45;;;0.20;;
31734;SDS011;18313;48.518;9.124;2023-11-19T05:58:42;0.50;;;0.20;;
31734;SDS011;18313;48.518;9.124;2023-11-19T06:01:11;2.17;;;0.28;;
31734;SDS011;18313;48.518;9.124;2023-11-19T06:03:39;0.82;;;0.25;;
31734;SDS011;18313;48.518;9.124;2023-11-19T06:06:06;0.50;;;0.30;;
31734;SDS011;18313;48.518;9.124;2023-11-19T06:08:34;1.42;;;0.30;;
31734;SDS011;18313;48.518;9.124;2023-11-19T06:11:01;0.60;;;0.20;;
31734;SDS011;18313;48.518;9.124;2023-11-19T06:13:29;0.38;;;0.20;;
31734;SDS011;18313;48.518;9.124;2023-11-19T06:15:57;1.95;;;0.30;;
31734;SDS011;18313;48.518;9.124;2023-11-19T06:18:25;0.57;;;0.20;;
31734;SDS011;18313;48.518;9.124;2023-11-19T06:20:52;1.90;;;0.28;;
31734;SDS011;18313;48.518;9.124;2023-11-19T06:23:20;0.55;;;0.25;;
31734;SDS011;18313;48.518;9.124;2023-11-19T06:25:47;0.25;;;0.20;;
31734;SDS011;18313;48.518;9.124;2023-11-19T06:28:15;0.20;;;0.20;;
31734;SDS011;18313;48.518;9.124;2023-11-19T06:30:42;2.00;;;0.30;;
31734;SDS011;18313;48.518;9.124;2023-11-19T06:33:14;0.60;;;0.20;;
31734;SDS011;18313;48.518;9.124;2023-11-19T06:35:42;2.50;;;0.30;;
31734;SDS011;18313;48.518;9.124;2023-11-19T06:38:09;1.75;;;0.30;;
31734;SDS011;18313;48.518;9.124;2023-11-19T06:40:37;1.77;;;0.30;;
31734;SDS011;18313;48.518;9.124;2023-11-19T06:43:04;1.10;;;0.30;;
31734;SDS011;18313;48.518;9.124;2023-11-19T06:45:35;0.30;;;0.30;;
31734;SDS011;18313;48.518;9.124;2023-11-19T06:48:04;0.20;;;0.20;;
31734;SDS011;18313;48.518;9.124;2023-11-19T06:50:32;1.27;;;0.30;;
31734;SDS011;18313;48.518;9.124;2023-11-19T06:52:59;0.30;;;0.20;;
31734;SDS011;18313;48.518;9.124;2023-11-19T06:55:26;0.68;;;0.30;;
31734;SDS011;18313;48.518;9.124;2023-11-19T06:57:54;0.38;;;0.30;;
31734;SDS011;18313;48.518;9.124;2023-11-19T07:00:21;0.68;;;0.40;;
31734;SDS011;18313;48.518;9.124;2023-11-19T07:02:48;2.80;;;0.22;;
31734;SDS011;18313;48.518;9.124;2023-11-19T07:05:18;1.30;;;0.40;;
31734;SDS011;18313;48.518;9.124;2023-11-19T07:07:45;1.90;;;0.20;;
31734;SDS011;18313;48.518;9.124;2023-11-19T07:10:13;1.75;;;0.40;;
31734;SDS011;18313;48.518;9.124;2023-11-19T07:12:40;0.40;;;0.25;;
31734;SDS011;18313;48.518;9.124;2023-11-19T07:15:08;0.28;;;0.28;;
31734;SDS011;18313;48.518;9.124;2023-11-19T07:17:35;0.75;;;0.30;;
31734;SDS011;18313;48.518;9.124;2023-11-19T07:20:03;0.52;;;0.40;;
31734;SDS011;18313;48.518;9.124;2023-11-19T07:22:31;1.05;;;0.32;;
31734;SDS011;18313;48.518;9.124;2023-11-19T07:24:58;0.60;;;0.30;;
31734;SDS011;18313;48.518;9.124;2023-11-19T07:27:25;0.50;;;0.50;;
31734;SDS011;18313;48.518;9.124;2023-11-19T07:29:52;0.30;;;0.30;;
31734;SDS011;18313;48.518;9.124;2023-11-19T07:32:20;1.60;;;0.40;;
31734;SDS011;18313;48.518;9.124;2023-11-19T07:34:47;1.90;;;0.50;;
31734;SDS011;18313;48.518;9.124;2023-11-19T07:37:14;1.05;;;0.40;;
31734;SDS011;18313;48.518;9.124;2023-11-19T07:39:43;0.60;;;0.40;;
31734;SDS011;18313;48.518;9.124;2023-11-19T07:42:10;0.95;;;0.30;;
31734;SDS011;18313;48.518;9.124;2023-11-19T07:44:37;1.20;;;0.25;;
31734;SDS011;18313;48.518;9.124;2023-11-19T07:47:04;0.30;;;0.30;;
31734;SDS011;18313;48.518;9.124;2023-11-19T07:49:31;0.45;;;0.25;;
31734;SDS011;18313;48.518;9.124;2023-11-19T07:51:59;0.60;;;0.40;;
31734;SDS011;18313;48.518;9.124;2023-11-19T07:54:26;0.93;;;0.20;;
31734;SDS011;18313;48.518;9.124;2023-11-19T07:56:53;0.98;;;0.30;;
31734;SDS011;18313;48.518;9.124;2023-11-19T07:59:21;1.25;;;0.30;;
31734;SDS011;18313;48.518;9.124;2023-11-19T08:01:48;1.48;;;0.60;;
31734;SDS011;18313;48.518;9.124;2023-11-19T08:04:16;1.38;;;0.60;;
31734;SDS011;18313;48.518;9.124;2023-11-19T08:06:43;0.75;;;0.52;;
31734;SDS011;18313;48.518;9.124;2023-11-19T08:09:12;0.43;;;0.30;;
31734;SDS011;18313;48.518;9.124;2023-11-19T08:11:41;1.17;;;0.57;;
31734;SDS011;18313;48.518;9.124;2023-11-19T08:14:09;1.75;;;0.70;;
31734;SDS011;18313;48.518;9.124;2023-11-19T08:16:38;1.20;;;0.70;;
31734;SDS011;18313;48.518;9.124;2023-11-19T08:19:06;1.65;;;1.10;;
31734;SDS011;18313;48.518;9.124;2023-11-19T08:21:35;2.45;;;1.17;;
31734;SDS011;18313;48.518;9.124;2023-11-19T08:24:02;2.35;;;1.85;;
31734;SDS011;18313;48.518;9.124;2023-11-19T08:26:29;2.60;;;1.48;;
31734;SDS011;18313;48.518;9.124;2023-11-19T08:28:57;1.63;;;0.80;;
31734;SDS011;18313;48.518;9.124;2023-11-19T08:31:24;1.48;;;0.77;;
31734;SDS011;18313;48.518;9.124;2023-11-19T08:33:52;1.38;;;0.95;;
31734;SDS011;18313;48.518;9.124;2023-11-19T08:36:19;3.38;;;1.00;;
31734;SDS011;18313;48.518;9.124;2023-11-19T08:38:47;1.92;;;1.08;;
31734;SDS011;18313;48.518;9.124;2023-11-19T08:41:15;1.25;;;0.80;;
31734;SDS011;18313;48.518;9.124;2023-11-19T08:43:45;3.53;;;0.50;;
31734;SDS011;18313;48.518;9.124;2023-11-19T08:46:12;0.40;;;0.40;;
31734;SDS011;18313;48.518;9.124;2023-11-19T08:48:40;1.05;;;0.50;;
31734;SDS011;18313;48.518;9.124;2023-11-19T08:51:07;0.40;;;0.40;;
31734;SDS011;18313;48.518;9.124;2023-11-19T08:53:34;0.60;;;0.57;;
31734;SDS011;18313;48.518;9.124;2023-11-19T08:56:02;2.25;;;1.58;;
31734;SDS011;18313;48.518;9.124;2023-11-19T08:58:30;1.38;;;1.10;;
31734;SDS011;18313;48.518;9.124;2023-11-19T09:00:57;0.85;;;0.68;;
31734;SDS011;18313;48.518;9.124;2023-11-19T09:03:25;0.70;;;0.50;;
31734;SDS011;18313;48.518;9.124;2023-11-19T09:05:57;0.40;;;0.40;;
31734;SDS011;18313;48.518;9.124;2023-11-19T09:08:24;2.03;;;0.50;;
31734;SDS011;18313;48.518;9.124;2023-11-19T09:10:52;2.15;;;0.60;;
31734;SDS011;18313;48.518;9.124;2023-11-19T09:13:19;1.08;;;0.40;;
31734;SDS011;18313;48.518;9.124;2023-11-19T09:15:47;0.30;;;0.30;;
31734;SDS011;18313;48.518;9.124;2023-11-19T09:18:15;0.40;;;0.30;;
31734;SDS011;18313;48.518;9.124;2023-11-19T09:20:42;1.73;;;0.30;;
31734;SDS011;18313;48.518;9.124;2023-11-19T09:23:10;0.30;;;0.30;;
31734;SDS011;18313;48.518;9.124;2023-11-19T09:25:38;0.95;;;0.40;;
31734;SDS011;18313;48.518;9.124;2023-11-19T09:28:08;0.63;;;0.30;;
31734;SDS011;18313;48.518;9.124;2023-11-19T09:30:36;0.70;;;0.35;;
31734;SDS011;18313;48.518;9.124;2023-11-19T09:33:03;1.70;;;0.20;;
31734;SDS011;18313;48.518;9.124;2023-11-19T09:35:30;0.68;;;0.40;;
31734;SDS011;18313;48.518;9.124;2023-11-19T09:37:58;0.45;;;0.30;;
31734;SDS011;18313;48.518;9.124;2023-11-19T09:40:28;0.60;;;0.40;;
31734;SDS011;18313;48.518;9.124;2023-11-19T09:42:55;1.65;;;0.30;;
31734;SDS011;18313;48.518;9.124;2023-11-19T09:45:23;0.70;;;0.30;;
31734;SDS011;18313;48.518;9.124;2023-11-19T09:47:54;0.20;;;0.17;;
31734;SDS011;18313;48.518;9.124;2023-11-19T09:50:24;1.15;;;0.28;;
31734;SDS011;18313;48.518;9.124;2023-11-19T09:52:52;0.85;;;0.35;;
31734;SDS011;18313;48.518;9.124;2023-11-19T09:55:19;1.17;;;0.50;;
31734;SDS011;18313;48.518;9.124;2023-11-19T09:57:47;2.05;;;0.47;;
31734;SDS011;18313;48.518;9.124;2023-11-19T10:00:17;0.95;;;0.38;;
31734;SDS011;18313;48.518;9.124;2023-11-19T10:02:46;2.00;;;0.40;;
31734;SDS011;18313;48.518;9.124;2023-11-19T10:05:15;0.55;;;0.30;;
31734;SDS011;18313;48.518;9.124;2023-11-19T10:07:42;0.40;;;0.20;;
31734;SDS011;18313;48.518;9.124;2023-11-19T10:10:11;1.30;;;0.30;;
31734;SDS011;18313;48.518;9.124;2023-11-19T10:12:45;1.02;;;0.30;;
31734;SDS011;18313;48.518;9.124;2023-11-19T10:15:20;0.60;;;0.45;;
31734;SDS011;18313;48.518;9.124;2023-11-19T10:17:52;0.88;;;0.30;;
31734;SDS011;18313;48.518;9.124;2023-11-19T10:20:22;0.68;;;0.30;;
31734;SDS011;18313;48.518;9.124;2023-11-19T10:22:53;0.45;;;0.30;;
31734;SDS011;18313;48.518;9.124;2023-11-19T10:25:24;0.32;;;0.30;;
31734;SDS011;18313;48.518;9.124;2023-11-19T10:27:56;1.30;;;0.40;;
31734;SDS011;18313;48.518;9.124;2023-11-19T10:30:24;0.77;;;0.30;;
31734;SDS011;18313;48.518;9.124;2023-11-19T10:33:05;1.55;;;0.50;;
31734;SDS011;18313;48.518;9.124;2023-11-19T10:35:51;1.08;;;0.50;;
31734;SDS011;18313;48.518;9.124;2023-11-19T10:38:23;1.75;;;0.30;;
31734;SDS011;18313;48.518;9.124;2023-11-19T10:40:51;2.95;;;0.50;;
31734;SDS011;18313;48.518;9.124;2023-11-19T10:48:04;0.35;;;0.30;;
31734;SDS011;18313;48.518;9.124;2023-11-19T10:50:34;0.57;;;0.32;;
31734;SDS011;18313;48.518;9.124;2023-11-19T10:53:03;0.73;;;0.40;;
31734;SDS011;18313;48.518;9.124;2023-11-19T10:55:32;1.10;;;0.40;;
31734;SDS011;18313;48.518;9.124;2023-11-19T10:58:02;1.05;;;0.22;;
31734;SDS011;18313;48.518;9.124;2023-11-19T11:00:54;0.60;;;0.30;;
31734;SDS011;18313;48.518;9.124;2023-11-19T11:03:24;1.83;;;0.43;;
31734;SDS011;18313;48.518;9.124;2023-11-19T11:05:52;0.65;;;0.20;;
31734;SDS011;18313;48.518;9.124;2023-11-19T11:08:20;0.30;;;0.30;;
31734;SDS011;18313;48.518;9.124;2023-11-19T11:10:54;1.25;;;0.30;;
31734;SDS011;18313;48.518;9.124;2023-11-19T11:13:24;1.10;;;0.30;;
31734;SDS011;18313;48.518;9.124;2023-11-19T11:15:55;1.30;;;0.40;;
31734;SDS011;18313;48.518;9.124;2023-11-19T11:18:25;0.98;;;0.30;;
31734;SDS011;18313;48.518;9.124;2023-11-19T11:20:54;1.13;;;0.28;;
31734;SDS011;18313;48.518;9.124;2023-11-19T11:26:30;0.45;;;0.30;;
31734;SDS011;18313;48.518;9.124;2023-11-19T11:29:16;0.63;;;0.20;;
31734;SDS011;18313;48.518;9.124;2023-11-19T11:37:12;1.45;;;0.13;;
31734;SDS011;18313;48.518;9.124;2023-11-19T11:39:52;0.75;;;0.30;;
31734;SDS011;18313;48.518;9.124;2023-11-19T11:45:14;0.63;;;0.22;;
31734;SDS011;18313;48.518;9.124;2023-11-19T11:50:12;0.10;;;0.10;;
31734;SDS011;18313;48.518;9.124;2023-11-19T11:57:56;0.60;;;0.20;;
31734;SDS011;18313;48.518;9.124;2023-11-19T12:00:27;1.65;;;0.20;;
31734;SDS011;18313;48.518;9.124;2023-11-19T12:03:01;0.15;;;0.15;;
31734;SDS011;18313;48.518;9.124;2023-11-19T12:05:30;1.05;;;0.22;;
31734;SDS011;18313;48.518;9.124;2023-11-19T12:08:01;0.43;;;0.20;;
31734;SDS011;18313;48.518;9.124;2023-11-19T12:10:37;0.82;;;0.30;;
31734;SDS011;18313;48.518;9.124;2023-11-19T12:13:11;2.45;;;0.30;;
31734;SDS011;18313;48.518;9.124;2023-11-19T12:18:27;4.05;;;0.52;;
31734;SDS011;18313;48.518;9.124;2023-11-19T12:20:56;0.98;;;0.45;;
31734;SDS011;18313;48.518;9.124;2023-11-19T12:23:23;0.90;;;0.30;;
31734;SDS011;18313;48.518;9.124;2023-11-19T12:25:51;0.68;;;0.20;;
31734;SDS011;18313;48.518;9.124;2023-11-19T12:28:19;1.63;;;0.70;;
31734;SDS011;18313;48.518;9.124;2023-11-19T12:30:47;0.80;;;0.40;;
31734;SDS011;18313;48.518;9.124;2023-11-19T12:33:15;1.58;;;0.90;;
31734;SDS011;18313;48.518;9.124;2023-11-19T12:35:43;2.92;;;0.40;;
31734;SDS011;18313;48.518;9.124;2023-11-19T12:38:20;0.55;;;0.40;;
31734;SDS011;18313;48.518;9.124;2023-11-19T12:41:08;1.80;;;0.30;;
31734;SDS011;18313;48.518;9.124;2023-11-19T12:43:40;0.88;;;0.40;;
31734;SDS011;18313;48.518;9.124;2023-11-19T12:46:16;1.42;;;0.30;;
31734;SDS011;18313;48.518;9.124;2023-11-19T12:48:48;1.00;;;0.30;;
31734;SDS011;18313;48.518;9.124;2023-11-19T12:51:16;1.05;;;0.30;;
31734;SDS011;18313;48.518;9.124;2023-11-19T12:53:48;3.00;;;0.40;;
31734;SDS011;18313;48.518;9.124;2023-11-19T12:56:21;0.70;;;0.40;;
31734;SDS011;18313;48.518;9.124;2023-11-19T12:58:49;2.55;;;0.40;;
31734;SDS011;18313;48.518;9.124;2023-11-19T13:01:17;1.60;;;0.40;;
31734;SDS011;18313;48.518;9.124;2023-11-19T13:03:46;4.03;;;0.60;;
31734;SDS011;18313;48.518;9.124;2023-11-19T13:06:15;0.90;;;0.30;;
31734;SDS011;18313;48.518;9.124;2023-11-19T13:08:44;0.98;;;0.30;;
31734;SDS011;18313;48.518;9.124;2023-11-19T13:11:29;2.80;;;0.40;;
31734;SDS011;18313;48.518;9.124;2023-11-19T13:14:02;3.67;;;0.50;;
31734;SDS011;18313;48.518;9.124;2023-11-19T13:16:31;2.50;;;0.20;;
31734;SDS011;18313;48.518;9.124;2023-11-19T13:18:59;2.30;;;0.50;;
31734;SDS011;18313;48.518;9.124;2023-11-19T13:21:27;0.60;;;0.30;;
31734;SDS011;18313;48.518;9.124;2023-11-19T13:23:54;2.00;;;0.40;;
31734;SDS011;18313;48.518;9.124;2023-11-19T13:26:22;2.05;;;0.55;;
31734;SDS011;18313;48.518;9.124;2023-11-19T13:28:49;2.22;;;0.43;;
31734;SDS011;18313;48.518;9.124;2023-11-19T13:31:16;1.80;;;0.43;;
31734;SDS011;18313;48.518;9.124;2023-11-19T13:33:44;1.27;;;0.50;;
31734;SDS011;18313;48.518;9.124;2023-11-19T13:36:11;2.03;;;0.70;;
31734;SDS011;18313;48.518;9.124;2023-11-19T13:38:43;1.10;;;0.32;;
31734;SDS011;18313;48.518;9.124;2023-11-19T13:41:13;3.28;;;0.40;;
31734;SDS011;18313;48.518;9.124;2023-11-19T13:43:41;2.22;;;0.50;;
31734;SDS011;18313;48.518;9.124;2023-11-19T13:46:08;1.63;;;0.73;;
31734;SDS011;18313;48.518;9.124;2023-11-19T13:48:37;3.17;;;0.55;;
31734;SDS011;18313;48.518;9.124;2023-11-19T13:51:05;3.65;;;0.70;;
31734;SDS011;18313;48.518;9.124;2023-11-19T13:53:32;1.67;;;0.70;;
31734;SDS011;18313;48.518;9.124;2023-11-19T13:56:17;1.15;;;0.50;;
31734;SDS011;18313;48.518;9.124;2023-11-19T13:58:45;1.77;;;0.80;;
31734;SDS011;18313;48.518;9.124;2023-11-19T14:01:12;1.83;;;0.47;;
31734;SDS011;18313;48.518;9.124;2023-11-19T14:03:40;1.48;;;0.70;;
31734;SDS011;18313;48.518;9.124;2023-11-19T14:06:08;1.75;;;0.50;;
31734;SDS011;18313;48.518;9.124;2023-11-19T14:08:36;3.63;;;0.60;;
31734;SDS011;18313;48.518;9.124;2023-11-19T14:11:04;3.63;;;0.68;;
31734;SDS011;18313;48.518;9.124;2023-11-19T14:13:31;3.00;;;0.88;;
31734;SDS011;18313;48.518;9.124;2023-11-19T14:15:59;2.80;;;0.45;;
31734;SDS011;18313;48.518;9.124;2023-11-19T14:18:28;1.52;;;0.90;;
31734;SDS011;18313;48.518;9.124;2023-11-19T14:20:54;2.35;;;0.50;;
31734;SDS011;18313;48.518;9.124;2023-11-19T14:23:22;1.52;;;0.40;;
31734;SDS011;18313;48.518;9.124;2023-11-19T14:25:50;1.50;;;0.40;;
31734;SDS011;18313;48.518;9.124;2023-11-19T14:28:17;2.67;;;0.50;;
31734;SDS011;18313;48.518;9.124;2023-11-19T14:30:46;1.38;;;0.40;;
31734;SDS011;18313;48.518;9.124;2023-11-19T14:33:14;1.85;;;0.55;;
31734;SDS011;18313;48.518;9.124;2023-11-19T14:35:41;4.15;;;0.60;;
31734;SDS011;18313;48.518;9.124;2023-11-19T14:38:09;0.98;;;0.32;;
31734;SDS011;18313;48.518;9.124;2023-11-19T14:40:36;2.47;;;0.70;;
31734;SDS011;18313;48.518;9.124;2023-11-19T14:43:06;1.77;;;0.50;;
31734;SDS011;18313;48.518;9.124;2023-11-19T14:45:37;2.15;;;0.60;;
31734;SDS011;18313;48.518;9.124;2023-11-19T14:48:15;0.95;;;0.50;;
31734;SDS011;18313;48.518;9.124;2023-11-19T14:50:45;2.97;;;0.68;;
31734;SDS011;18313;48.518;9.124;2023-11-19T14:53:12;2.58;;;0.88;;
31734;SDS011;18313;48.518;9.124;2023-11-19T14:55:39;1.85;;;0.50;;
31734;SDS011;18313;48.518;9.124;2023-11-19T14:58:06;1.65;;;0.77;;
31734;SDS011;18313;48.518;9.124;2023-11-19T15:00:38;2.10;;;0.60;;
31734;SDS011;18313;48.518;9.124;2023-11-19T15:03:05;1.35;;;0.50;;
31734;SDS011;18313;48.518;9.124;2023-11-19T15:05:33;1.95;;;0.70;;
31734;SDS011;18313;48.518;9.124;2023-11-19T15:08:01;2.72;;;0.70;;
31734;SDS011;18313;48.518;9.124;2023-11-19T15:10:30;2.08;;;0.73;;
31734;SDS011;18313;48.518;9.124;2023-11-19T15:12:57;1.55;;;0.90;;
31734;SDS011;18313;48.518;9.124;2023-11-19T15:15:24;2.15;;;0.70;;
31734;SDS011;18313;48.518;9.124;2023-11-19T15:17:55;5.18;;;0.80;;
31734;SDS011;18313;48.518;9.124;2023-11-19T15:20:22;2.75;;;0.60;;
31734;SDS011;18313;48.518;9.124;2023-11-19T15:22:50;1.95;;;0.50;;
31734;SDS011;18313;48.518;9.124;2023-11-19T15:25:17;4.32;;;0.70;;